sensor_id;sensor_type;location;lat;lon;timestamp;P1;durP1;ratioP1;P2;durP2;ratioP2
43646;SDS011;56152;49.996;18.980;2023-05-14T00:02:06;19.92;;;12.43;;
43646;SDS011;56152;49.996;18.980;2023-05-14T00:07:08;19.85;;;12.60;;
43646;SDS011;56152;49.996;18.980;2023-05-14T00:12:12;19.65;;;11.20;;
43646;SDS011;56152;49.996;18.980;2023-05-14T00:17:14;15.77;;;10.63;;
43646;SDS011;56152;49.996;18.980;2023-05-14T00:22:20;21.83;;;12.10;;
43646;SDS011;56152;49.996;18.980;2023-05-14T00:27:24;31.10;;;14.82;;
43646;SDS011;56152;49.996;18.980;2023-05-14T00:32:28;25.83;;;14.07;;
43646;SDS011;56152;49.996;18.980;2023-05-14T00:37:31;25.73;;;13.57;;
43646;SDS011;56152;49.996;18.980;2023-05-14T00:42:35;20.30;;;11.70;;
43646;SDS011;56152;49.996;18.980;2023-05-14T00:47:40;24.38;;;14.32;;
43646;SDS011;56152;49.996;18.980;2023-05-14T00:52:48;16.85;;;12.25;;
43646;SDS011;56152;49.996;18.980;2023-05-14T00:57:53;18.10;;;11.32;;
43646;SDS011;56152;49.996;18.980;2023-05-14T01:02:58;18.80;;;11.75;;
43646;SDS011;56152;49.996;18.980;2023-05-14T01:08:08;17.65;;;12.18;;
43646;SDS011;56152;49.996;18.980;2023-05-14T01:13:21;23.08;;;13.15;;
43646;SDS011;56152;49.996;18.980;2023-05-14T01:18:28;20.42;;;12.70;;
43646;SDS011;56152;49.996;18.980;2023-05-14T01:23:34;16.83;;;11.07;;
43646;SDS011;56152;49.996;18.980;2023-05-14T01:28:36;19.27;;;11.73;;
43646;SDS011;56152;49.996;18.980;2023-05-14T01:33:41;21.85;;;13.40;;
43646;SDS011;56152;49.996;18.980;2023-05-14T01:38:47;18.73;;;12.90;;
43646;SDS011;56152;49.996;18.980;2023-05-14T01:43:50;15.27;;;10.82;;
43646;SDS011;56152;49.996;18.980;2023-05-14T01:48:53;24.20;;;15.63;;
43646;SDS011;56152;49.996;18.980;2023-05-14T01:53:57;20.05;;;12.20;;
43646;SDS011;56152;49.996;18.980;2023-05-14T01:58:59;19.80;;;13.77;;
43646;SDS011;56152;49.996;18.980;2023-05-14T02:04:02;21.80;;;14.32;;
43646;SDS011;56152;49.996;18.980;2023-05-14T02:09:07;18.75;;;12.05;;
43646;SDS011;56152;49.996;18.980;2023-05-14T02:14:09;22.80;;;13.40;;
43646;SDS011;56152;49.996;18.980;2023-05-14T02:19:14;22.13;;;13.98;;
43646;SDS011;56152;49.996;18.980;2023-05-14T02:24:20;20.25;;;13.02;;
43646;SDS011;56152;49.996;18.980;2023-05-14T02:29:24;20.58;;;12.75;;
43646;SDS011;56152;49.996;18.980;2023-05-14T02:34:26;27.05;;;15.40;;
43646;SDS011;56152;49.996;18.980;2023-05-14T02:39:29;22.27;;;14.20;;
43646;SDS011;56152;49.996;18.980;2023-05-14T02:44:31;26.00;;;16.35;;
43646;SDS011;56152;49.996;18.980;2023-05-14T02:49:33;23.75;;;15.35;;
43646;SDS011;56152;49.996;18.980;2023-05-14T02:54:38;24.52;;;14.70;;
43646;SDS011;56152;49.996;18.980;2023-05-14T02:59:40;19.75;;;12.02;;
43646;SDS011;56152;49.996;18.980;2023-05-14T03:04:42;18.92;;;12.65;;
43646;SDS011;56152;49.996;18.980;2023-05-14T03:09:48;13.80;;;9.52;;
43646;SDS011;56152;49.996;18.980;2023-05-14T03:14:50;13.55;;;9.98;;
43646;SDS011;56152;49.996;18.980;2023-05-14T03:19:53;16.42;;;9.65;;
43646;SDS011;56152;49.996;18.980;2023-05-14T03:24:57;11.73;;;8.82;;
43646;SDS011;56152;49.996;18.980;2023-05-14T03:29:59;14.98;;;9.52;;
43646;SDS011;56152;49.996;18.980;2023-05-14T03:35:02;15.30;;;10.00;;
43646;SDS011;56152;49.996;18.980;2023-05-14T03:40:07;16.58;;;10.50;;
43646;SDS011;56152;49.996;18.980;2023-05-14T03:45:15;15.80;;;10.98;;
43646;SDS011;56152;49.996;18.980;2023-05-14T03:50:18;16.10;;;10.10;;
43646;SDS011;56152;49.996;18.980;2023-05-14T03:55:24;13.73;;;9.05;;
43646;SDS011;56152;49.996;18.980;2023-05-14T04:00:29;13.75;;;9.75;;
43646;SDS011;56152;49.996;18.980;2023-05-14T04:05:32;16.92;;;9.40;;
43646;SDS011;56152;49.996;18.980;2023-05-14T04:10:41;17.92;;;11.75;;
43646;SDS011;56152;49.996;18.980;2023-05-14T04:15:46;15.27;;;10.27;;
43646;SDS011;56152;49.996;18.980;2023-05-14T04:20:48;12.45;;;8.90;;
43646;SDS011;56152;49.996;18.980;2023-05-14T04:25:52;14.55;;;9.60;;
43646;SDS011;56152;49.996;18.980;2023-05-14T04:30:54;13.98;;;9.70;;
43646;SDS011;56152;49.996;18.980;2023-05-14T04:35:57;17.00;;;11.05;;
43646;SDS011;56152;49.996;18.980;2023-05-14T04:41:05;15.05;;;10.32;;
43646;SDS011;56152;49.996;18.980;2023-05-14T04:46:07;14.68;;;10.25;;
43646;SDS011;56152;49.996;18.980;2023-05-14T04:51:10;14.35;;;10.32;;
43646;SDS011;56152;49.996;18.980;2023-05-14T04:56:14;15.80;;;10.25;;
43646;SDS011;56152;49.996;18.980;2023-05-14T05:01:16;13.85;;;8.73;;
43646;SDS011;56152;49.996;18.980;2023-05-14T05:06:20;12.80;;;9.27;;
43646;SDS011;56152;49.996;18.980;2023-05-14T05:11:25;15.52;;;9.55;;
43646;SDS011;56152;49.996;18.980;2023-05-14T05:16:27;13.45;;;10.13;;
43646;SDS011;56152;49.996;18.980;2023-05-14T05:21:31;13.48;;;8.35;;
43646;SDS011;56152;49.996;18.980;2023-05-14T05:26:35;13.52;;;8.93;;
43646;SDS011;56152;49.996;18.980;2023-05-14T05:31:37;13.98;;;9.80;;
43646;SDS011;56152;49.996;18.980;2023-05-14T05:36:39;17.83;;;9.05;;
43646;SDS011;56152;49.996;18.980;2023-05-14T05:41:42;12.25;;;8.38;;
43646;SDS011;56152;49.996;18.980;2023-05-14T05:46:52;11.65;;;8.57;;
43646;SDS011;56152;49.996;18.980;2023-05-14T05:51:56;12.82;;;8.20;;
43646;SDS011;56152;49.996;18.980;2023-05-14T05:57:05;13.15;;;8.43;;
43646;SDS011;56152;49.996;18.980;2023-05-14T06:02:07;11.93;;;8.93;;
43646;SDS011;56152;49.996;18.980;2023-05-14T06:07:09;11.82;;;8.50;;
43646;SDS011;56152;49.996;18.980;2023-05-14T06:12:14;16.65;;;8.13;;
43646;SDS011;56152;49.996;18.980;2023-05-14T06:17:19;11.77;;;7.22;;
43646;SDS011;56152;49.996;18.980;2023-05-14T06:22:23;9.45;;;6.15;;
43646;SDS011;56152;49.996;18.980;2023-05-14T06:27:27;7.50;;;5.30;;
43646;SDS011;56152;49.996;18.980;2023-05-14T06:37:37;9.85;;;6.05;;
43646;SDS011;56152;49.996;18.980;2023-05-14T06:42:45;6.90;;;5.47;;
43646;SDS011;56152;49.996;18.980;2023-05-14T06:47:47;8.63;;;5.75;;
43646;SDS011;56152;49.996;18.980;2023-05-14T06:52:49;10.48;;;6.68;;
43646;SDS011;56152;49.996;18.980;2023-05-14T06:57:53;8.60;;;5.43;;
43646;SDS011;56152;49.996;18.980;2023-05-14T07:02:55;10.35;;;6.90;;
43646;SDS011;56152;49.996;18.980;2023-05-14T07:07:57;9.98;;;5.97;;
43646;SDS011;56152;49.996;18.980;2023-05-14T07:13:02;7.30;;;5.97;;
43646;SDS011;56152;49.996;18.980;2023-05-14T07:18:04;9.25;;;6.75;;
43646;SDS011;56152;49.996;18.980;2023-05-14T07:23:07;7.07;;;6.03;;
43646;SDS011;56152;49.996;18.980;2023-05-14T07:28:11;8.85;;;5.80;;
43646;SDS011;56152;49.996;18.980;2023-05-14T07:33:15;7.72;;;5.35;;
43646;SDS011;56152;49.996;18.980;2023-05-14T07:38:19;8.00;;;4.60;;
43646;SDS011;56152;49.996;18.980;2023-05-14T07:43:24;9.15;;;5.32;;
43646;SDS011;56152;49.996;18.980;2023-05-14T07:48:26;9.00;;;5.50;;
43646;SDS011;56152;49.996;18.980;2023-05-14T07:53:31;4.88;;;4.35;;
43646;SDS011;56152;49.996;18.980;2023-05-14T07:58:35;6.40;;;4.82;;
43646;SDS011;56152;49.996;18.980;2023-05-14T08:03:38;6.90;;;4.38;;
43646;SDS011;56152;49.996;18.980;2023-05-14T08:08:40;6.53;;;3.92;;
43646;SDS011;56152;49.996;18.980;2023-05-14T08:13:46;7.88;;;4.65;;
43646;SDS011;56152;49.996;18.980;2023-05-14T08:18:51;6.50;;;4.70;;
43646;SDS011;56152;49.996;18.980;2023-05-14T08:23:56;7.88;;;3.70;;
43646;SDS011;56152;49.996;18.980;2023-05-14T08:29:03;7.10;;;3.83;;
43646;SDS011;56152;49.996;18.980;2023-05-14T08:34:05;7.43;;;5.05;;
43646;SDS011;56152;49.996;18.980;2023-05-14T08:39:08;6.40;;;4.40;;
43646;SDS011;56152;49.996;18.980;2023-05-14T08:44:14;9.98;;;5.22;;
43646;SDS011;56152;49.996;18.980;2023-05-14T08:49:20;5.25;;;3.83;;
43646;SDS011;56152;49.996;18.980;2023-05-14T08:54:31;7.57;;;4.50;;
43646;SDS011;56152;49.996;18.980;2023-05-14T08:59:35;7.05;;;3.55;;
43646;SDS011;56152;49.996;18.980;2023-05-14T09:04:38;4.07;;;3.08;;
43646;SDS011;56152;49.996;18.980;2023-05-14T09:09:41;6.78;;;3.83;;
43646;SDS011;56152;49.996;18.980;2023-05-14T09:14:46;4.97;;;3.92;;
43646;SDS011;56152;49.996;18.980;2023-05-14T09:19:50;6.50;;;3.42;;
43646;SDS011;56152;49.996;18.980;2023-05-14T09:25:05;5.50;;;3.78;;
43646;SDS011;56152;49.996;18.980;2023-05-14T09:30:11;4.68;;;3.47;;
43646;SDS011;56152;49.996;18.980;2023-05-14T09:35:16;5.13;;;2.88;;
43646;SDS011;56152;49.996;18.980;2023-05-14T09:40:20;7.57;;;3.70;;
43646;SDS011;56152;49.996;18.980;2023-05-14T09:45:27;4.97;;;3.30;;
43646;SDS011;56152;49.996;18.980;2023-05-14T09:50:30;5.57;;;3.35;;
43646;SDS011;56152;49.996;18.980;2023-05-14T09:55:33;7.20;;;3.05;;
43646;SDS011;56152;49.996;18.980;2023-05-14T10:00:37;3.20;;;2.67;;
43646;SDS011;56152;49.996;18.980;2023-05-14T10:05:39;7.47;;;4.25;;
43646;SDS011;56152;49.996;18.980;2023-05-14T10:10:44;7.38;;;4.50;;
43646;SDS011;56152;49.996;18.980;2023-05-14T10:15:48;11.57;;;7.40;;
43646;SDS011;56152;49.996;18.980;2023-05-14T10:21:03;6.55;;;4.40;;
43646;SDS011;56152;49.996;18.980;2023-05-14T10:26:06;8.90;;;5.45;;
43646;SDS011;56152;49.996;18.980;2023-05-14T10:31:10;5.50;;;3.88;;
43646;SDS011;56152;49.996;18.980;2023-05-14T10:36:13;4.50;;;3.15;;
43646;SDS011;56152;49.996;18.980;2023-05-14T10:41:16;5.68;;;3.88;;
43646;SDS011;56152;49.996;18.980;2023-05-14T10:46:22;9.10;;;4.75;;
43646;SDS011;56152;49.996;18.980;2023-05-14T10:51:26;13.05;;;7.38;;
43646;SDS011;56152;49.996;18.980;2023-05-14T10:56:30;5.15;;;3.63;;
43646;SDS011;56152;49.996;18.980;2023-05-14T11:01:35;5.18;;;3.33;;
43646;SDS011;56152;49.996;18.980;2023-05-14T11:06:41;4.63;;;3.13;;
43646;SDS011;56152;49.996;18.980;2023-05-14T11:11:47;3.95;;;3.00;;
43646;SDS011;56152;49.996;18.980;2023-05-14T11:16:52;6.45;;;2.90;;
43646;SDS011;56152;49.996;18.980;2023-05-14T11:21:54;3.50;;;2.67;;
43646;SDS011;56152;49.996;18.980;2023-05-14T11:26:57;5.75;;;2.63;;
43646;SDS011;56152;49.996;18.980;2023-05-14T11:32:03;3.60;;;2.30;;
43646;SDS011;56152;49.996;18.980;2023-05-14T11:37:07;3.88;;;2.28;;
43646;SDS011;56152;49.996;18.980;2023-05-14T11:42:19;4.50;;;2.97;;
43646;SDS011;56152;49.996;18.980;2023-05-14T11:47:27;8.15;;;2.20;;
43646;SDS011;56152;49.996;18.980;2023-05-14T11:52:30;3.33;;;2.20;;
43646;SDS011;56152;49.996;18.980;2023-05-14T11:57:38;3.65;;;2.40;;
43646;SDS011;56152;49.996;18.980;2023-05-14T12:02:45;8.55;;;6.40;;
43646;SDS011;56152;49.996;18.980;2023-05-14T12:07:48;4.90;;;3.08;;
43646;SDS011;56152;49.996;18.980;2023-05-14T12:12:54;2.67;;;2.00;;
43646;SDS011;56152;49.996;18.980;2023-05-14T12:18:01;2.28;;;1.85;;
43646;SDS011;56152;49.996;18.980;2023-05-14T12:23:03;2.28;;;1.60;;
43646;SDS011;56152;49.996;18.980;2023-05-14T12:28:13;3.22;;;2.20;;
43646;SDS011;56152;49.996;18.980;2023-05-14T12:33:17;2.93;;;2.07;;
43646;SDS011;56152;49.996;18.980;2023-05-14T12:38:21;4.25;;;2.25;;
43646;SDS011;56152;49.996;18.980;2023-05-14T12:43:24;3.78;;;2.50;;
43646;SDS011;56152;49.996;18.980;2023-05-14T12:48:32;2.95;;;2.53;;
43646;SDS011;56152;49.996;18.980;2023-05-14T12:53:36;3.67;;;2.53;;
43646;SDS011;56152;49.996;18.980;2023-05-14T12:58:41;2.63;;;2.10;;
43646;SDS011;56152;49.996;18.980;2023-05-14T13:03:44;2.45;;;1.98;;
43646;SDS011;56152;49.996;18.980;2023-05-14T13:08:47;27.38;;;2.88;;
43646;SDS011;56152;49.996;18.980;2023-05-14T13:13:52;4.47;;;2.00;;
43646;SDS011;56152;49.996;18.980;2023-05-14T13:18:57;1.67;;;1.58;;
43646;SDS011;56152;49.996;18.980;2023-05-14T13:23:58;2.38;;;1.65;;
43646;SDS011;56152;49.996;18.980;2023-05-14T13:29:00;6.07;;;2.10;;
43646;SDS011;56152;49.996;18.980;2023-05-14T13:34:04;7.80;;;2.40;;
43646;SDS011;56152;49.996;18.980;2023-05-14T13:39:06;2.35;;;1.67;;
43646;SDS011;56152;49.996;18.980;2023-05-14T13:44:08;5.32;;;1.73;;
43646;SDS011;56152;49.996;18.980;2023-05-14T13:49:12;3.33;;;1.90;;
43646;SDS011;56152;49.996;18.980;2023-05-14T13:54:14;2.20;;;1.80;;
43646;SDS011;56152;49.996;18.980;2023-05-14T13:59:16;4.00;;;2.88;;
43646;SDS011;56152;49.996;18.980;2023-05-14T14:04:21;10.75;;;2.92;;
43646;SDS011;56152;49.996;18.980;2023-05-14T14:09:24;10.55;;;3.50;;
43646;SDS011;56152;49.996;18.980;2023-05-14T14:14:27;3.70;;;2.13;;
43646;SDS011;56152;49.996;18.980;2023-05-14T14:19:33;13.05;;;3.70;;
43646;SDS011;56152;49.996;18.980;2023-05-14T14:24:35;5.85;;;2.50;;
43646;SDS011;56152;49.996;18.980;2023-05-14T14:29:38;3.15;;;1.98;;
43646;SDS011;56152;49.996;18.980;2023-05-14T14:34:42;7.65;;;3.00;;
43646;SDS011;56152;49.996;18.980;2023-05-14T14:40:05;2.75;;;2.05;;
43646;SDS011;56152;49.996;18.980;2023-05-14T14:45:11;5.22;;;3.47;;
43646;SDS011;56152;49.996;18.980;2023-05-14T14:50:28;3.92;;;2.33;;
43646;SDS011;56152;49.996;18.980;2023-05-14T14:55:42;6.35;;;3.15;;
43646;SDS011;56152;49.996;18.980;2023-05-14T15:00:44;11.18;;;6.38;;
43646;SDS011;56152;49.996;18.980;2023-05-14T15:05:51;8.30;;;3.75;;
43646;SDS011;56152;49.996;18.980;2023-05-14T15:10:56;13.07;;;7.72;;
43646;SDS011;56152;49.996;18.980;2023-05-14T15:15:58;37.75;;;32.17;;
43646;SDS011;56152;49.996;18.980;2023-05-14T15:21:02;5.20;;;3.50;;
43646;SDS011;56152;49.996;18.980;2023-05-14T15:26:05;5.35;;;3.83;;
43646;SDS011;56152;49.996;18.980;2023-05-14T15:31:11;4.45;;;2.17;;
43646;SDS011;56152;49.996;18.980;2023-05-14T15:36:21;6.40;;;2.45;;
43646;SDS011;56152;49.996;18.980;2023-05-14T15:41:23;14.02;;;8.90;;
43646;SDS011;56152;49.996;18.980;2023-05-14T15:46:34;4.85;;;3.63;;
43646;SDS011;56152;49.996;18.980;2023-05-14T15:51:49;5.80;;;3.83;;
43646;SDS011;56152;49.996;18.980;2023-05-14T15:56:55;10.48;;;4.07;;
43646;SDS011;56152;49.996;18.980;2023-05-14T16:02:11;4.88;;;2.50;;
43646;SDS011;56152;49.996;18.980;2023-05-14T16:07:15;6.88;;;2.30;;
43646;SDS011;56152;49.996;18.980;2023-05-14T16:12:17;6.30;;;3.40;;
43646;SDS011;56152;49.996;18.980;2023-05-14T16:17:19;8.70;;;2.78;;
43646;SDS011;56152;49.996;18.980;2023-05-14T16:22:23;28.77;;;18.45;;
43646;SDS011;56152;49.996;18.980;2023-05-14T16:27:28;175.55;;;113.78;;
43646;SDS011;56152;49.996;18.980;2023-05-14T16:32:30;220.73;;;141.32;;
43646;SDS011;56152;49.996;18.980;2023-05-14T16:37:34;50.47;;;37.15;;
43646;SDS011;56152;49.996;18.980;2023-05-14T16:42:36;14.73;;;10.05;;
43646;SDS011;56152;49.996;18.980;2023-05-14T16:47:38;13.18;;;8.20;;
43646;SDS011;56152;49.996;18.980;2023-05-14T16:52:43;7.38;;;4.70;;
43646;SDS011;56152;49.996;18.980;2023-05-14T16:57:48;6.40;;;4.22;;
43646;SDS011;56152;49.996;18.980;2023-05-14T17:02:50;12.07;;;3.65;;
43646;SDS011;56152;49.996;18.980;2023-05-14T17:07:55;8.18;;;4.47;;
43646;SDS011;56152;49.996;18.980;2023-05-14T17:12:57;8.02;;;3.70;;
43646;SDS011;56152;49.996;18.980;2023-05-14T17:17:59;9.02;;;4.82;;
43646;SDS011;56152;49.996;18.980;2023-05-14T17:23:04;16.52;;;3.65;;
43646;SDS011;56152;49.996;18.980;2023-05-14T17:28:05;9.77;;;5.25;;
43646;SDS011;56152;49.996;18.980;2023-05-14T17:33:08;5.10;;;3.05;;
43646;SDS011;56152;49.996;18.980;2023-05-14T17:38:12;69.30;;;31.15;;
43646;SDS011;56152;49.996;18.980;2023-05-14T17:43:18;19.27;;;8.15;;
43646;SDS011;56152;49.996;18.980;2023-05-14T17:48:24;21.73;;;10.00;;
43646;SDS011;56152;49.996;18.980;2023-05-14T17:53:31;17.55;;;7.43;;
43646;SDS011;56152;49.996;18.980;2023-05-14T17:58:33;21.02;;;11.90;;
43646;SDS011;56152;49.996;18.980;2023-05-14T18:03:35;13.25;;;8.40;;
43646;SDS011;56152;49.996;18.980;2023-05-14T18:08:40;26.80;;;14.75;;
43646;SDS011;56152;49.996;18.980;2023-05-14T18:13:45;33.13;;;14.40;;
43646;SDS011;56152;49.996;18.980;2023-05-14T18:18:46;51.72;;;17.38;;
43646;SDS011;56152;49.996;18.980;2023-05-14T18:23:52;6.50;;;3.28;;
43646;SDS011;56152;49.996;18.980;2023-05-14T18:28:53;4.55;;;2.80;;
43646;SDS011;56152;49.996;18.980;2023-05-14T18:33:55;3.97;;;2.50;;
43646;SDS011;56152;49.996;18.980;2023-05-14T18:39:02;5.13;;;1.92;;
43646;SDS011;56152;49.996;18.980;2023-05-14T18:44:04;4.10;;;1.90;;
43646;SDS011;56152;49.996;18.980;2023-05-14T18:49:07;6.57;;;4.30;;
43646;SDS011;56152;49.996;18.980;2023-05-14T18:54:11;6.07;;;3.70;;
43646;SDS011;56152;49.996;18.980;2023-05-14T18:59:15;11.10;;;3.42;;
43646;SDS011;56152;49.996;18.980;2023-05-14T19:04:17;6.07;;;3.35;;
43646;SDS011;56152;49.996;18.980;2023-05-14T19:09:23;17.95;;;9.48;;
43646;SDS011;56152;49.996;18.980;2023-05-14T19:14:25;14.15;;;8.32;;
43646;SDS011;56152;49.996;18.980;2023-05-14T19:19:28;12.02;;;6.72;;
43646;SDS011;56152;49.996;18.980;2023-05-14T19:24:37;13.18;;;8.15;;
43646;SDS011;56152;49.996;18.980;2023-05-14T19:29:39;18.70;;;10.73;;
43646;SDS011;56152;49.996;18.980;2023-05-14T19:34:41;14.27;;;7.78;;
43646;SDS011;56152;49.996;18.980;2023-05-14T19:39:46;48.22;;;27.98;;
43646;SDS011;56152;49.996;18.980;2023-05-14T19:44:48;28.30;;;15.55;;
43646;SDS011;56152;49.996;18.980;2023-05-14T19:49:51;29.15;;;15.18;;
43646;SDS011;56152;49.996;18.980;2023-05-14T19:54:55;20.75;;;10.25;;
43646;SDS011;56152;49.996;18.980;2023-05-14T19:59:59;25.10;;;18.20;;
43646;SDS011;56152;49.996;18.980;2023-05-14T20:05:10;26.00;;;20.70;;
43646;SDS011;56152;49.996;18.980;2023-05-14T20:10:15;21.45;;;16.50;;
43646;SDS011;56152;49.996;18.980;2023-05-14T20:15:17;21.20;;;15.88;;
43646;SDS011;56152;49.996;18.980;2023-05-14T20:20:21;19.45;;;8.73;;
43646;SDS011;56152;49.996;18.980;2023-05-14T20:25:26;9.25;;;5.70;;
43646;SDS011;56152;49.996;18.980;2023-05-14T20:30:37;9.85;;;5.43;;
43646;SDS011;56152;49.996;18.980;2023-05-14T20:35:40;8.05;;;4.53;;
43646;SDS011;56152;49.996;18.980;2023-05-14T20:40:45;6.80;;;3.88;;
43646;SDS011;56152;49.996;18.980;2023-05-14T20:45:48;6.88;;;4.28;;
43646;SDS011;56152;49.996;18.980;2023-05-14T20:50:50;5.28;;;3.75;;
43646;SDS011;56152;49.996;18.980;2023-05-14T20:55:54;5.60;;;4.15;;
43646;SDS011;56152;49.996;18.980;2023-05-14T21:00:57;7.32;;;3.95;;
43646;SDS011;56152;49.996;18.980;2023-05-14T21:06:00;7.03;;;4.07;;
43646;SDS011;56152;49.996;18.980;2023-05-14T21:11:04;7.28;;;4.18;;
43646;SDS011;56152;49.996;18.980;2023-05-14T21:16:06;7.22;;;4.53;;
43646;SDS011;56152;49.996;18.980;2023-05-14T21:21:10;6.35;;;4.40;;
43646;SDS011;56152;49.996;18.980;2023-05-14T21:26:14;8.57;;;4.13;;
43646;SDS011;56152;49.996;18.980;2023-05-14T21:31:16;5.05;;;3.75;;
43646;SDS011;56152;49.996;18.980;2023-05-14T21:36:18;6.32;;;4.40;;
43646;SDS011;56152;49.996;18.980;2023-05-14T21:41:22;15.82;;;13.45;;
43646;SDS011;56152;49.996;18.980;2023-05-14T21:46:24;7.88;;;6.95;;
43646;SDS011;56152;49.996;18.980;2023-05-14T21:51:28;6.30;;;5.18;;
43646;SDS011;56152;49.996;18.980;2023-05-14T21:56:33;7.80;;;5.22;;
43646;SDS011;56152;49.996;18.980;2023-05-14T22:01:36;7.40;;;5.90;;
43646;SDS011;56152;49.996;18.980;2023-05-14T22:06:40;7.20;;;5.32;;
43646;SDS011;56152;49.996;18.980;2023-05-14T22:11:45;6.45;;;5.57;;
43646;SDS011;56152;49.996;18.980;2023-05-14T22:16:47;6.90;;;5.35;;
43646;SDS011;56152;49.996;18.980;2023-05-14T22:21:50;8.25;;;5.63;;
43646;SDS011;56152;49.996;18.980;2023-05-14T22:26:53;8.52;;;7.15;;
43646;SDS011;56152;49.996;18.980;2023-05-14T22:31:55;7.15;;;6.15;;
43646;SDS011;56152;49.996;18.980;2023-05-14T22:36:58;8.90;;;7.25;;
43646;SDS011;56152;49.996;18.980;2023-05-14T22:42:03;11.88;;;8.48;;
43646;SDS011;56152;49.996;18.980;2023-05-14T22:47:06;10.52;;;8.90;;
43646;SDS011;56152;49.996;18.980;2023-05-14T22:52:08;7.88;;;6.25;;
43646;SDS011;56152;49.996;18.980;2023-05-14T22:57:12;7.47;;;6.32;;
43646;SDS011;56152;49.996;18.980;2023-05-14T23:02:14;7.45;;;6.03;;
43646;SDS011;56152;49.996;18.980;2023-05-14T23:07:20;6.95;;;6.07;;
43646;SDS011;56152;49.996;18.980;2023-05-14T23:12:25;8.10;;;6.38;;
43646;SDS011;56152;49.996;18.980;2023-05-14T23:17:27;8.52;;;7.13;;
43646;SDS011;56152;49.996;18.980;2023-05-14T23:22:30;11.35;;;8.57;;
43646;SDS011;56152;49.996;18.980;2023-05-14T23:27:35;12.93;;;8.10;;
43646;SDS011;56152;49.996;18.980;2023-05-14T23:32:38;13.38;;;8.55;;
43646;SDS011;56152;49.996;18.980;2023-05-14T23:37:39;13.98;;;10.55;;
43646;SDS011;56152;49.996;18.980;2023-05-14T23:42:48;15.30;;;10.45;;
43646;SDS011;56152;49.996;18.980;2023-05-14T23:47:50;12.30;;;8.43;;
43646;SDS011;56152;49.996;18.980;2023-05-14T23:52:54;11.23;;;8.05;;
43646;SDS011;56152;49.996;18.980;2023-05-14T23:57:59;12.68;;;9.23;;
